createdAt,value
2022-09-02T00:02:13.238Z,91815.75
2022-09-02T00:04:45.685Z,91822.88
2022-09-02T00:07:18.838Z,91817.25
2022-09-02T00:09:51.702Z,91828.94
2022-09-02T00:12:24.123Z,91830.47
2022-09-02T00:14:56.571Z,91838.06
2022-09-02T00:17:28.922Z,91830.47
2022-09-02T00:20:01.594Z,91842.56
2022-09-02T00:22:34.660Z,91835.75
2022-09-02T00:25:09.043Z,91839.50
2022-09-02T00:27:41.390Z,91837.72
2022-09-02T00:30:14.612Z,91841.44
2022-09-02T00:32:47.068Z,91836.25
2022-09-02T00:35:19.870Z,91837.81
2022-09-02T00:37:53.103Z,91835.13
2022-09-02T00:40:25.876Z,91835.88
2022-09-02T00:42:58.371Z,91836.25
2022-09-02T00:45:30.834Z,91839.97
2022-09-02T00:48:03.950Z,91836.81
2022-09-02T00:50:37.171Z,91846.41
2022-09-02T00:53:13.639Z,91834.13
2022-09-02T00:55:49.260Z,91852.81
2022-09-02T00:58:25.520Z,91853.50
2022-09-02T01:00:59.211Z,91853.91
2022-09-02T01:03:33.754Z,91858.44
2022-09-02T01:06:06.634Z,91856.16
2022-09-02T01:08:42.847Z,91859.06
2022-09-02T01:11:19.252Z,91863.88
2022-09-02T01:13:51.654Z,91861.84
2022-09-02T01:16:27.723Z,91872.59
2022-09-02T01:19:03.737Z,91872.47
2022-09-02T01:21:36.168Z,91876.53
2022-09-02T01:24:09.402Z,91881.22
2022-09-02T01:26:41.822Z,91870.75
2022-09-02T01:29:15.754Z,91856.63
2022-09-02T01:31:48.458Z,91848.72
2022-09-02T01:34:20.942Z,91857.63
2022-09-02T01:36:53.354Z,91844.31
2022-09-02T01:39:27.138Z,91834.59
2022-09-02T01:42:00.416Z,91836.91
2022-09-02T01:44:36.984Z,91836.94
2022-09-02T01:47:09.772Z,91821.13
2022-09-02T01:49:42.475Z,91820.13
2022-09-02T01:52:18.851Z,91827.94
2022-09-02T01:54:52.748Z,91816.25
2022-09-02T01:57:25.232Z,91808.69
2022-09-02T01:59:58.128Z,91806.59
2022-09-02T02:02:31.839Z,91805.22
2022-09-02T02:05:08.307Z,91800.03
2022-09-02T02:07:41.726Z,91805.13
2022-09-02T02:10:17.859Z,91791.03
2022-09-02T02:12:51.254Z,91793.25
2022-09-02T02:17:58.084Z,91785.03
2022-09-02T02:20:31.371Z,91779.88
2022-09-02T02:23:05.387Z,91778.25
2022-09-02T02:25:38.679Z,91774.34
2022-09-02T02:28:11.415Z,91766.63
2022-09-02T02:30:44.335Z,91766.72
2022-09-02T02:33:17.078Z,91765.88
2022-09-02T02:35:49.745Z,91759.81
2022-09-02T02:38:24.039Z,91766.44
2022-09-02T02:40:57.914Z,91763.53
2022-09-02T02:43:30.999Z,91772.38
2022-09-02T02:46:04.393Z,91772.84
2022-09-02T02:48:36.879Z,91775.56
2022-09-02T02:51:10.499Z,91764.66
2022-09-02T02:53:43.527Z,91773.34
2022-09-02T02:56:17.241Z,91775.78
2022-09-02T02:58:49.667Z,91770.09
2022-09-02T03:01:22.570Z,91775.78
2022-09-02T03:03:55.107Z,91776.63
2022-09-02T03:06:29.126Z,91766.91
2022-09-02T03:09:02.067Z,91771.31
2022-09-02T03:11:35.232Z,91771.66
2022-09-02T03:14:07.922Z,91777.09
2022-09-02T03:16:40.751Z,91777.19
2022-09-02T03:19:13.748Z,91779.19
2022-09-02T03:21:46.433Z,91775.88
2022-09-02T03:24:19.199Z,91782.53
2022-09-02T03:26:52.349Z,91783.69
2022-09-02T03:29:25.981Z,91780.22
2022-09-02T03:31:58.490Z,91785.56
2022-09-02T03:34:32.927Z,91778.84
2022-09-02T03:37:05.419Z,91776.13
2022-09-02T03:39:39.040Z,91786.34
2022-09-02T03:42:17.490Z,91780.22
2022-09-02T03:44:54.171Z,91789.38
2022-09-02T03:47:29.245Z,91792.88
2022-09-02T03:50:02.842Z,91790.63
2022-09-02T03:52:36.367Z,91795.56
2022-09-02T03:55:09.821Z,91802.72
2022-09-02T03:57:43.322Z,91803.56
2022-09-02T04:00:18.774Z,91810.63
2022-09-02T04:02:54.414Z,91820.44
2022-09-02T04:05:27.844Z,91827.56
2022-09-02T04:08:02.449Z,91819.91
2022-09-02T04:10:37.659Z,91833.09
2022-09-02T04:13:11.350Z,91822.16
2022-09-02T04:15:47.249Z,91834.91
2022-09-02T04:18:19.811Z,91833.72
2022-09-02T04:20:52.241Z,91823.13
2022-09-02T04:23:25.764Z,91839.75
2022-09-02T04:25:58.263Z,91839.00
2022-09-02T04:28:31.843Z,91836.81
2022-09-02T04:31:05.177Z,91847.25
2022-09-02T04:33:37.979Z,91853.72
2022-09-02T04:36:14.763Z,91853.38
2022-09-02T04:38:49.621Z,91848.72
2022-09-02T04:41:27.794Z,91849.91
2022-09-02T04:44:04.789Z,91848.38
2022-09-02T04:46:41.744Z,91851.75
2022-09-02T04:49:18.890Z,91846.41
2022-09-02T04:51:53.755Z,91858.84
2022-09-02T04:54:27.865Z,91863.50
2022-09-02T04:57:04.621Z,91857.53
2022-09-02T04:59:38.582Z,91867.66
2022-09-02T05:02:15.354Z,91867.25
2022-09-02T05:04:49.127Z,91862.66
2022-09-02T05:07:28.792Z,91870.09
2022-09-02T05:10:05.311Z,91876.56
2022-09-02T05:12:41.347Z,91872.91
2022-09-02T05:15:15.884Z,91867.06
2022-09-02T05:17:48.354Z,91882.75
2022-09-02T05:20:21.353Z,91877.06
2022-09-02T05:22:55.006Z,91883.19
2022-09-02T05:25:28.482Z,91878.34
2022-09-02T05:28:01.798Z,91876.88
2022-09-02T05:30:35.446Z,91876.47
2022-09-02T05:33:09.952Z,91877.22
2022-09-02T05:35:47.924Z,91869.44
2022-09-02T05:38:24.488Z,91873.84
2022-09-02T05:40:58.986Z,91875.09
2022-09-02T05:43:31.739Z,91868.31
2022-09-02T05:46:07.356Z,91869.94
2022-09-02T05:48:59.517Z,91868.13
2022-09-02T05:51:38.259Z,91863.91
2022-09-02T05:54:13.928Z,91862.78
2022-09-02T05:56:49.095Z,91861.69
2022-09-02T05:59:22.259Z,91850.56
2022-09-02T06:01:56.133Z,91857.16
2022-09-02T06:04:29.170Z,91864.47
2022-09-02T06:07:02.456Z,91865.66
2022-09-02T06:09:35.007Z,91863.75
2022-09-02T06:12:08.109Z,91866.47
2022-09-02T06:14:42.218Z,91865.00
2022-09-02T06:17:17.265Z,91865.50
2022-09-02T06:19:56.338Z,91865.59
2022-09-02T06:22:32.011Z,91861.91
2022-09-02T06:25:06.118Z,91864.22
2022-09-02T06:27:38.577Z,91866.19
2022-09-02T06:30:11.684Z,91877.22
2022-09-02T06:32:45.490Z,91870.34
2022-09-02T06:35:23.982Z,91873.78
2022-09-02T06:37:56.687Z,91872.28
2022-09-02T06:40:29.264Z,91870.81
2022-09-02T06:43:03.203Z,91876.88
2022-09-02T06:45:39.615Z,91877.28
2022-09-02T06:48:14.587Z,91887.97
2022-09-02T06:50:48.439Z,91887.63
2022-09-02T06:53:21.813Z,91893.88
2022-09-02T06:55:54.955Z,91890.44
2022-09-02T06:58:27.758Z,91891.72
2022-09-02T07:01:00.771Z,91892.59
2022-09-02T07:03:51.967Z,91889.19
2022-09-02T07:06:25.268Z,91898.34
2022-09-02T07:08:58.263Z,91908.28
2022-09-02T07:11:31.827Z,91907.28
2022-09-02T07:14:05.413Z,91904.00
2022-09-02T07:16:43.341Z,91902.19
2022-09-02T07:19:20.543Z,91893.03
2022-09-02T07:21:53.726Z,91908.44
2022-09-02T07:24:27.807Z,91896.59
2022-09-02T07:33:27.787Z,91897.47
2022-09-02T07:36:01.205Z,91904.31
2022-09-02T07:38:34.259Z,91903.66
2022-09-02T07:41:09.338Z,91902.72
2022-09-02T07:43:41.942Z,91905.22
2022-09-02T07:46:15.564Z,91898.84
2022-09-02T07:48:49.473Z,91901.84
2022-09-02T07:51:22.881Z,91911.09
2022-09-02T07:53:55.384Z,91917.59
2022-09-02T07:56:27.871Z,91914.22
2022-09-02T07:59:00.726Z,91926.81
2022-09-02T08:01:33.710Z,91933.56
2022-09-02T08:04:08.552Z,91937.09
2022-09-02T08:06:41.847Z,91933.69
2022-09-02T08:09:14.345Z,91937.53
2022-09-02T08:11:49.248Z,91934.91
2022-09-02T08:14:25.319Z,91935.31
2022-09-02T08:16:58.250Z,91939.94
2022-09-02T08:19:32.133Z,91936.56
2022-09-02T08:22:05.239Z,91941.94
2022-09-02T08:24:38.493Z,91943.84
2022-09-02T08:27:10.954Z,91940.91
2022-09-02T08:29:43.306Z,91927.97
2022-09-02T08:32:15.760Z,91932.97
2022-09-02T08:34:48.967Z,91936.41
2022-09-02T08:37:22.095Z,91938.72
2022-09-02T08:39:54.591Z,91934.44
2022-09-02T08:42:32.756Z,91929.50
2022-09-02T08:45:11.312Z,91920.47
2022-09-02T08:47:47.249Z,91921.25
2022-09-02T08:50:21.741Z,91923.16
2022-09-02T08:53:03.455Z,91916.78
2022-09-02T08:55:43.274Z,91927.38
2022-09-02T08:58:18.715Z,91916.69
2022-09-02T09:01:03.512Z,91914.50
2022-09-02T09:03:46.051Z,91911.13
2022-09-02T09:06:25.258Z,91908.56
2022-09-02T09:09:06.377Z,91916.63
2022-09-02T09:11:45.401Z,91914.81
2022-09-02T09:14:29.202Z,91913.38
2022-09-02T09:17:09.779Z,91914.88
2022-09-02T09:19:48.577Z,91905.38
2022-09-02T09:22:29.519Z,91915.25
2022-09-02T09:25:03.074Z,91914.94
2022-09-02T09:27:35.445Z,91915.06
2022-09-02T09:30:14.845Z,91895.00
2022-09-02T09:32:51.766Z,91916.78
2022-09-02T09:35:25.892Z,91914.59
2022-09-02T09:37:59.393Z,91916.59
2022-09-02T09:40:32.735Z,91917.78
2022-09-02T09:43:15.797Z,91919.75
2022-09-02T09:45:50.760Z,91916.00
2022-09-02T09:48:27.187Z,91912.69
2022-09-02T09:51:15.722Z,91910.06
2022-09-02T09:53:48.827Z,91909.72
2022-09-02T09:56:37.506Z,91908.59
2022-09-02T09:59:37.981Z,91906.78
2022-09-02T10:02:22.707Z,91903.09
2022-09-02T10:05:10.230Z,91906.56
2022-09-02T10:07:45.005Z,91897.94
2022-09-02T10:10:21.347Z,91897.63
2022-09-02T10:12:56.896Z,91905.25
2022-09-02T10:15:43.096Z,91905.72
2022-09-02T10:18:22.375Z,91904.75
2022-09-02T10:21:16.433Z,91907.41
2022-09-02T10:23:57.178Z,91913.56
2022-09-02T10:26:37.740Z,91901.88
2022-09-02T10:29:46.464Z,91901.50
2022-09-02T10:32:30.603Z,91901.13
2022-09-02T10:35:11.251Z,91906.09
2022-09-02T10:38:00.264Z,91903.06
2022-09-02T10:40:40.877Z,91903.78
2022-09-02T10:43:32.715Z,91898.91
2022-09-02T10:46:08.728Z,91892.06
2022-09-02T10:48:51.841Z,91901.66
2022-09-02T10:51:33.179Z,91903.53
2022-09-02T10:54:23.523Z,91900.94
2022-09-02T10:57:02.782Z,91899.38
2022-09-02T10:59:41.725Z,91895.22
2022-09-02T11:02:17.642Z,91892.22
2022-09-02T11:04:55.826Z,91889.22
2022-09-02T11:07:33.066Z,91881.97
2022-09-02T11:10:11.436Z,91890.34
2022-09-02T11:12:50.682Z,91884.22
2022-09-02T11:15:26.823Z,91871.97
2022-09-02T11:18:09.731Z,91871.94
2022-09-02T11:20:50.101Z,91872.31
2022-09-02T11:23:34.411Z,91869.59
2022-09-02T11:26:14.685Z,91879.06
2022-09-02T11:28:55.499Z,91874.81
2022-09-02T11:31:38.832Z,91876.31
2022-09-02T11:34:25.976Z,91873.25
2022-09-02T11:36:58.460Z,91876.41
2022-09-02T11:39:52.579Z,91867.66
2022-09-02T11:42:53.021Z,91869.41
2022-09-02T11:45:56.331Z,91873.59
2022-09-02T11:49:16.618Z,91869.41
2022-09-02T11:52:04.129Z,91853.81
2022-09-02T11:54:40.915Z,91853.75
2022-09-02T11:57:20.499Z,91849.88
2022-09-02T12:00:07.115Z,91854.44
2022-09-02T12:02:49.587Z,91856.75
2022-09-02T12:05:44.441Z,91856.50
2022-09-02T12:09:08.765Z,91855.22
2022-09-02T12:11:54.330Z,91846.31
2022-09-02T12:15:06.875Z,91847.06
2022-09-02T12:17:45.683Z,91852.75
2022-09-02T12:21:06.269Z,91855.78
2022-09-02T12:24:25.112Z,91851.81
2022-09-02T12:27:22.705Z,91841.88
2022-09-02T12:29:56.517Z,91848.03
2022-09-02T12:33:04.228Z,91843.47
2022-09-02T12:35:53.623Z,91839.81
2022-09-02T12:38:31.669Z,91842.13
2022-09-02T12:41:29.515Z,91822.03
2022-09-02T12:44:24.087Z,91823.63
2022-09-02T12:47:05.226Z,91829.38
2022-09-02T12:49:45.707Z,91824.16
2022-09-02T12:52:42.142Z,91828.00
2022-09-02T12:55:20.530Z,91834.22
2022-09-02T12:58:06.013Z,91824.34
2022-09-02T13:00:58.012Z,91828.22
2022-09-02T13:03:52.091Z,91822.16
2022-09-02T13:06:31.813Z,91827.56
2022-09-02T13:09:31.281Z,91823.81
2022-09-02T13:12:29.438Z,91825.34
2022-09-02T13:15:17.440Z,91815.84
2022-09-02T13:18:43.330Z,91817.31
2022-09-02T13:21:33.457Z,91814.59
2022-09-02T13:24:33.755Z,91819.09
2022-09-02T13:27:40.615Z,91832.00
2022-09-02T13:30:18.121Z,91826.19
2022-09-02T13:32:57.108Z,91808.25
2022-09-02T13:35:30.324Z,91835.19
2022-09-02T13:38:02.902Z,91832.00
2022-09-02T13:40:37.114Z,91845.25
2022-09-02T13:43:17.919Z,91852.81
2022-09-02T13:45:51.935Z,91851.34
2022-09-02T13:48:27.038Z,91839.66
2022-09-02T13:51:08.857Z,91834.75
2022-09-02T13:54:11.709Z,91839.66
2022-09-02T13:56:39.482Z,91834.72
2022-09-02T13:59:11.881Z,91832.44
2022-09-02T14:01:44.408Z,91836.22
2022-09-02T14:04:17.939Z,91832.50
2022-09-02T14:06:53.117Z,91840.13
2022-09-02T14:09:29.302Z,91850.31
2022-09-02T14:12:04.228Z,91845.38
2022-09-02T14:14:36.978Z,91848.09
2022-09-02T14:17:21.624Z,91854.47
2022-09-02T14:20:09.016Z,91846.09
2022-09-02T14:22:42.390Z,91845.69
2022-09-02T14:25:16.606Z,91852.97
2022-09-02T14:27:49.911Z,91841.63
2022-09-02T14:30:30.792Z,91850.28
2022-09-02T14:33:25.849Z,91862.81
2022-09-02T14:36:00.538Z,91865.09
2022-09-02T14:38:36.711Z,91871.16
2022-09-02T14:41:13.094Z,91864.94
2022-09-02T14:43:47.659Z,91866.84
2022-09-02T14:46:27.785Z,91865.28
2022-09-02T14:49:03.963Z,91849.69
2022-09-02T14:51:39.823Z,91864.44
2022-09-02T14:54:32.901Z,91865.09
2022-09-02T14:57:06.730Z,91856.66
2022-09-02T14:59:39.307Z,91874.03
2022-09-02T15:02:22.099Z,91879.16
2022-09-02T15:04:55.295Z,91875.16
2022-09-02T15:07:28.055Z,91867.91
2022-09-02T15:10:01.130Z,91874.97
2022-09-02T15:12:37.555Z,91877.28
2022-09-02T15:15:10.152Z,91876.81
2022-09-02T15:17:42.583Z,91879.19
2022-09-02T15:20:15.238Z,91885.63
2022-09-02T15:22:47.683Z,91891.31
2022-09-02T15:25:20.787Z,91891.69
2022-09-02T15:27:53.241Z,91894.38
2022-09-02T15:30:25.646Z,91891.34
2022-09-02T15:33:02.054Z,91884.88
2022-09-02T15:35:34.794Z,91890.56
2022-09-02T15:38:07.470Z,91890.22
2022-09-02T15:40:40.657Z,91885.53
2022-09-02T15:43:13.683Z,91881.31
2022-09-02T15:45:47.378Z,91898.28
2022-09-02T15:48:19.864Z,91894.81
2022-09-02T15:50:54.496Z,91892.06
2022-09-02T15:53:26.967Z,91897.63
2022-09-02T15:56:00.016Z,91900.19
2022-09-02T15:58:32.356Z,91897.47
2022-09-02T16:01:04.881Z,91891.22
2022-09-02T16:03:37.849Z,91898.78
2022-09-02T16:06:10.462Z,91895.31
2022-09-02T16:08:42.834Z,91897.81
2022-09-02T16:11:16.102Z,91901.47
2022-09-02T16:13:48.698Z,91902.19
2022-09-02T16:16:21.186Z,91905.56
2022-09-02T16:18:54.427Z,91901.78
2022-09-02T16:21:27.026Z,91917.72
2022-09-02T16:23:59.445Z,91913.88
2022-09-02T16:26:34.267Z,91911.25
2022-09-02T16:29:08.686Z,91908.44
2022-09-02T16:31:42.862Z,91913.53
2022-09-02T16:34:17.221Z,91918.69
2022-09-02T16:36:50.552Z,91926.22
2022-09-02T16:39:23.932Z,91925.59
2022-09-02T16:41:57.564Z,91925.09
2022-09-02T16:44:33.091Z,91933.03
2022-09-02T16:47:05.666Z,91936.69
2022-09-02T16:49:38.110Z,91934.25
2022-09-02T16:52:10.498Z,91932.88
2022-09-02T16:54:43.203Z,91933.53
2022-09-02T16:57:16.302Z,91927.94
2022-09-02T16:59:49.319Z,91935.72
2022-09-02T17:02:22.717Z,91930.81
2022-09-02T17:04:55.167Z,91930.59
2022-09-02T17:07:27.589Z,91929.41
2022-09-02T17:10:00.005Z,91932.34
2022-09-02T17:12:33.063Z,91934.59
2022-09-02T17:15:06.109Z,91930.38
2022-09-02T17:17:39.397Z,91923.75
2022-09-02T17:20:12.508Z,91931.38
2022-09-02T17:22:45.689Z,91931.50
2022-09-02T17:25:18.354Z,91936.19
2022-09-02T17:27:51.443Z,91929.69
2022-09-02T17:30:23.987Z,91937.34
2022-09-02T17:32:57.727Z,91942.22
2022-09-02T17:35:30.104Z,91944.91
2022-09-02T17:38:02.911Z,91945.25
2022-09-02T17:40:52.755Z,91944.84
2022-09-02T17:43:26.501Z,91944.19
2022-09-02T17:46:05.329Z,91947.22
2022-09-02T17:48:53.922Z,91947.28
2022-09-02T17:51:30.793Z,91953.34
2022-09-02T17:54:04.332Z,91956.66
2022-09-02T17:57:00.487Z,91955.84
2022-09-02T17:59:44.747Z,91957.53
2022-09-02T18:02:37.831Z,91957.22
2022-09-02T18:05:20.672Z,91965.16
2022-09-02T18:08:00.839Z,91966.22
2022-09-02T18:10:35.096Z,91971.09
2022-09-02T18:13:12.944Z,91979.44
2022-09-02T18:15:55.388Z,91983.66
2022-09-02T18:18:28.238Z,91987.28
2022-09-02T18:21:09.139Z,91986.59
2022-09-02T18:23:55.074Z,91986.31
2022-09-02T18:26:44.101Z,91992.06
2022-09-02T18:29:35.060Z,91997.88
2022-09-02T18:32:17.847Z,92003.28
2022-09-02T18:35:02.599Z,92001.22
2022-09-02T18:37:51.311Z,91999.78
2022-09-02T18:40:31.147Z,92005.81
2022-09-02T18:43:13.204Z,92004.06
2022-09-02T18:45:48.250Z,92001.59
2022-09-02T18:48:26.506Z,91995.38
2022-09-02T18:51:05.965Z,92001.78
2022-09-02T18:53:39.787Z,92003.03
2022-09-02T18:56:12.616Z,92004.41
2022-09-02T18:58:49.333Z,92003.75
2022-09-02T19:01:24.364Z,92005.63
2022-09-02T19:03:59.023Z,92007.56
2022-09-02T19:06:35.394Z,92013.28
2022-09-02T19:09:11.047Z,92012.97
2022-09-02T19:11:43.496Z,92010.66
2022-09-02T19:14:25.622Z,92008.44
2022-09-02T19:16:58.241Z,92008.72
2022-09-02T19:19:34.549Z,92008.44
2022-09-02T19:22:09.711Z,92008.44
2022-09-02T19:24:46.085Z,92001.63
2022-09-02T19:27:21.843Z,92004.72
2022-09-02T19:30:02.169Z,92010.16
2022-09-02T19:32:37.619Z,92009.31
2022-09-02T19:35:15.674Z,92009.22
2022-09-02T19:37:51.557Z,92007.41
2022-09-02T19:40:27.449Z,92007.69
2022-09-02T19:43:02.627Z,92005.97
2022-09-02T19:45:36.736Z,92013.13
2022-09-02T19:48:10.559Z,92008.44
2022-09-02T19:50:45.456Z,92013.72
2022-09-02T19:53:21.231Z,92020.97
2022-09-02T19:55:53.639Z,92010.91
2022-09-02T19:58:26.535Z,92004.63
2022-09-02T20:00:58.978Z,92003.16
2022-09-02T20:03:31.511Z,92008.28
2022-09-02T20:06:05.349Z,92006.50
2022-09-02T20:08:37.766Z,92006.59
2022-09-02T20:11:10.137Z,92010.06
2022-09-02T20:13:43.702Z,92010.84
2022-09-02T20:16:19.172Z,92013.72
2022-09-02T20:18:53.162Z,92000.78
2022-09-02T20:21:28.266Z,92018.31
2022-09-02T20:24:04.760Z,92008.78
2022-09-02T20:26:48.443Z,92019.94
2022-09-02T20:29:38.060Z,92024.19
2022-09-02T20:32:23.457Z,92019.69
2022-09-02T20:35:10.774Z,92022.75
2022-09-02T20:37:53.952Z,92020.81
2022-09-02T20:40:35.035Z,92024.09
2022-09-02T20:43:30.203Z,92013.56
2022-09-02T20:46:14.833Z,92022.66
2022-09-02T20:49:00.767Z,92022.00
2022-09-02T20:51:40.543Z,92024.63
2022-09-02T20:54:20.967Z,92021.22
2022-09-02T20:57:06.630Z,92037.13
2022-09-02T20:59:51.503Z,92027.19
2022-09-02T21:02:28.042Z,92028.25
2022-09-02T21:05:05.490Z,92032.00
2022-09-02T21:07:44.857Z,92036.53
2022-09-02T21:10:26.187Z,92036.59
2022-09-02T21:13:06.886Z,92045.38
2022-09-02T21:15:44.646Z,92039.06
2022-09-02T21:18:23.555Z,92026.50
2022-09-02T21:21:03.174Z,92048.69
2022-09-02T21:23:44.388Z,92040.00
2022-09-02T21:26:23.195Z,92036.50
2022-09-02T21:29:02.146Z,92032.25
2022-09-02T21:31:37.975Z,92039.06
2022-09-02T21:34:18.412Z,92043.22
2022-09-02T21:36:54.534Z,92048.84
2022-09-02T21:39:30.986Z,92051.56
2022-09-02T21:42:16.451Z,92050.06
2022-09-02T21:45:03.040Z,92045.44
2022-09-02T21:47:47.227Z,92041.28
2022-09-02T21:50:27.370Z,92041.53
2022-09-02T21:53:09.190Z,92044.06
2022-09-02T21:55:56.203Z,92051.28
2022-09-02T21:58:52.054Z,92054.59
2022-09-02T22:01:44.222Z,92058.34
2022-09-02T22:04:31.752Z,92048.16
2022-09-02T22:07:18.184Z,92059.88
2022-09-02T22:10:02.382Z,92055.72
2022-09-02T22:12:39.080Z,92051.66
2022-09-02T22:15:19.324Z,92049.59
2022-09-02T22:17:57.430Z,92048.91
2022-09-02T22:20:44.318Z,92056.81
2022-09-02T22:23:22.814Z,92055.63
2022-09-02T22:25:55.905Z,92048.72
2022-09-02T22:28:34.698Z,92044.44
2022-09-02T22:31:10.801Z,92035.75
2022-09-02T22:33:54.846Z,92038.38
2022-09-02T22:36:51.501Z,92039.41
2022-09-02T22:39:33.095Z,92037.88
2022-09-02T22:42:14.655Z,92036.34
2022-09-02T22:45:16.750Z,92032.69
2022-09-02T22:48:28.092Z,92036.75
2022-09-02T22:51:23.963Z,92026.91
2022-09-02T22:53:56.417Z,92027.75
2022-09-02T22:56:39.187Z,92038.84
2022-09-02T22:59:23.574Z,92023.47
2022-09-02T23:02:08.318Z,92030.25
2022-09-02T23:05:32.010Z,92034.44
2022-09-02T23:08:06.413Z,92037.84
2022-09-02T23:10:52.054Z,92034.88
2022-09-02T23:13:38.900Z,92031.91
2022-09-02T23:16:19.285Z,92024.91
2022-09-02T23:19:06.414Z,92027.34
2022-09-02T23:21:46.467Z,92028.94
2022-09-02T23:24:32.236Z,92031.69
2022-09-02T23:27:09.912Z,92027.72
2022-09-02T23:29:42.907Z,92033.00
2022-09-02T23:32:41.399Z,92032.47
2022-09-02T23:35:19.699Z,92030.94
2022-09-02T23:38:06.756Z,92035.00
2022-09-02T23:40:42.845Z,92038.09
2022-09-02T23:43:17.539Z,92030.94
2022-09-02T23:45:51.057Z,92035.13
2022-09-02T23:48:35.082Z,92036.53
2022-09-02T23:51:16.441Z,92043.19
2022-09-02T23:54:09.003Z,92042.41
2022-09-02T23:56:57.157Z,92042.31
2022-09-02T23:59:48.080Z,92052.44
